sensor_id;sensor_type;location;lat;lon;timestamp;pressure;altitude;pressure_sealevel;temperature;humidity
30302;BME280;17111;52.130;5.028;2023-01-31T00:01:35;102569.50;;;15.30;50.70
30302;BME280;17111;52.130;5.028;2023-01-31T00:04:05;102576.53;;;15.31;50.35
30302;BME280;17111;52.130;5.028;2023-01-31T00:06:35;102575.69;;;15.30;50.71
30302;BME280;17111;52.130;5.028;2023-01-31T00:09:03;102570.34;;;15.30;50.13
30302;BME280;17111;52.130;5.028;2023-01-31T00:11:31;102566.72;;;15.31;50.77
30302;BME280;17111;52.130;5.028;2023-01-31T00:13:59;102569.38;;;15.31;50.85
30302;BME280;17111;52.130;5.028;2023-01-31T00:16:25;102563.00;;;15.34;50.28
30302;BME280;17111;52.130;5.028;2023-01-31T00:18:52;102555.09;;;15.33;50.86
30302;BME280;17111;52.130;5.028;2023-01-31T00:21:22;102540.88;;;15.32;49.92
30302;BME280;17111;52.130;5.028;2023-01-31T00:23:50;102528.38;;;15.33;49.79
30302;BME280;17111;52.130;5.028;2023-01-31T00:26:28;102521.31;;;15.31;50.41
30302;BME280;17111;52.130;5.028;2023-01-31T00:28:56;102520.38;;;15.33;49.83
30302;BME280;17111;52.130;5.028;2023-01-31T00:31:25;102504.34;;;15.33;50.33
30302;BME280;17111;52.130;5.028;2023-01-31T00:33:53;102506.16;;;15.32;50.59
30302;BME280;17111;52.130;5.028;2023-01-31T00:36:26;102502.72;;;15.30;50.83
30302;BME280;17111;52.130;5.028;2023-01-31T00:38:55;102488.38;;;15.31;49.81
30302;BME280;17111;52.130;5.028;2023-01-31T00:41:24;102482.19;;;15.30;49.93
30302;BME280;17111;52.130;5.028;2023-01-31T00:43:51;102481.44;;;15.28;50.49
30302;BME280;17111;52.130;5.028;2023-01-31T00:46:18;102474.28;;;15.29;50.51
30302;BME280;17111;52.130;5.028;2023-01-31T00:48:46;102479.69;;;15.27;50.04
30302;BME280;17111;52.130;5.028;2023-01-31T00:51:13;102472.66;;;15.26;50.62
30302;BME280;17111;52.130;5.028;2023-01-31T00:53:40;102467.41;;;15.25;50.23
30302;BME280;17111;52.130;5.028;2023-01-31T00:56:12;102468.38;;;15.24;50.05
30302;BME280;17111;52.130;5.028;2023-01-31T00:58:39;102459.47;;;15.23;50.32
30302;BME280;17111;52.130;5.028;2023-01-31T01:01:10;102466.75;;;15.21;50.60
30302;BME280;17111;52.130;5.028;2023-01-31T01:03:37;102465.03;;;15.20;49.87
30302;BME280;17111;52.130;5.028;2023-01-31T01:06:05;102462.44;;;15.19;50.40
30302;BME280;17111;52.130;5.028;2023-01-31T01:08:33;102467.78;;;15.19;49.71
30302;BME280;17111;52.130;5.028;2023-01-31T01:11:15;102461.78;;;15.15;50.54
30302;BME280;17111;52.130;5.028;2023-01-31T01:13:43;102470.56;;;15.17;50.23
30302;BME280;17111;52.130;5.028;2023-01-31T01:16:16;102472.44;;;15.15;50.57
30302;BME280;17111;52.130;5.028;2023-01-31T01:18:42;102472.38;;;15.17;50.48
30302;BME280;17111;52.130;5.028;2023-01-31T01:21:14;102468.84;;;15.16;49.70
30302;BME280;17111;52.130;5.028;2023-01-31T01:23:41;102469.78;;;15.15;50.30
30302;BME280;17111;52.130;5.028;2023-01-31T01:26:16;102471.59;;;15.15;50.21
30302;BME280;17111;52.130;5.028;2023-01-31T01:28:44;102467.13;;;15.15;49.81
30302;BME280;17111;52.130;5.028;2023-01-31T01:31:12;102468.06;;;15.14;50.60
30302;BME280;17111;52.130;5.028;2023-01-31T01:33:39;102473.41;;;15.14;49.80
30302;BME280;17111;52.130;5.028;2023-01-31T01:36:08;102472.44;;;15.15;50.14
30302;BME280;17111;52.130;5.028;2023-01-31T01:38:37;102471.59;;;15.15;49.85
30302;BME280;17111;52.130;5.028;2023-01-31T01:41:04;102471.72;;;15.13;49.59
30302;BME280;17111;52.130;5.028;2023-01-31T01:43:54;102468.19;;;15.13;49.53
30302;BME280;17111;52.130;5.028;2023-01-31T01:46:25;102472.56;;;15.14;49.20
30302;BME280;17111;52.130;5.028;2023-01-31T01:48:59;102485.16;;;15.12;50.29
30302;BME280;17111;52.130;5.028;2023-01-31T01:51:29;102485.16;;;15.12;49.74
30302;BME280;17111;52.130;5.028;2023-01-31T01:54:00;102489.63;;;15.11;49.33
30302;BME280;17111;52.130;5.028;2023-01-31T01:56:32;102490.59;;;15.10;49.82
30302;BME280;17111;52.130;5.028;2023-01-31T01:59:08;102489.72;;;15.10;49.25
30302;BME280;17111;52.130;5.028;2023-01-31T02:01:38;102479.03;;;15.10;49.05
30302;BME280;17111;52.130;5.028;2023-01-31T02:04:06;102482.69;;;15.09;49.60
30302;BME280;17111;52.130;5.028;2023-01-31T02:06:34;102470.19;;;15.09;50.01
30302;BME280;17111;52.130;5.028;2023-01-31T02:09:02;102477.34;;;15.09;49.13
30302;BME280;17111;52.130;5.028;2023-01-31T02:11:31;102472.06;;;15.07;48.83
30302;BME280;17111;52.130;5.028;2023-01-31T02:14:07;102470.38;;;15.06;49.23
30302;BME280;17111;52.130;5.028;2023-01-31T02:16:35;102477.41;;;15.07;49.38
30302;BME280;17111;52.130;5.028;2023-01-31T02:19:05;102482.00;;;15.05;48.99
30302;BME280;17111;52.130;5.028;2023-01-31T02:24:48;102472.34;;;15.02;49.17
30302;BME280;17111;52.130;5.028;2023-01-31T02:27:33;102474.94;;;15.04;49.72
30302;BME280;17111;52.130;5.028;2023-01-31T02:36:06;102457.19;;;15.03;49.18
30302;BME280;17111;52.130;5.028;2023-01-31T02:44:02;102445.84;;;14.99;49.60
30302;BME280;17111;52.130;5.028;2023-01-31T02:47:02;102444.97;;;14.99;49.03
30302;BME280;17111;52.130;5.028;2023-01-31T02:49:39;102447.66;;;14.99;49.40
30302;BME280;17111;52.130;5.028;2023-01-31T02:52:49;102451.28;;;14.98;49.93
30302;BME280;17111;52.130;5.028;2023-01-31T02:58:11;102444.13;;;14.98;49.87
30302;BME280;17111;52.130;5.028;2023-01-31T03:00:41;102442.31;;;14.99;49.96
30302;BME280;17111;52.130;5.028;2023-01-31T03:03:23;102438.78;;;14.98;48.94
30302;BME280;17111;52.130;5.028;2023-01-31T03:08:42;102433.38;;;15.00;49.16
30302;BME280;17111;52.130;5.028;2023-01-31T03:11:10;102426.22;;;15.00;49.91
30302;BME280;17111;52.130;5.028;2023-01-31T03:13:46;102431.63;;;14.99;49.91
30302;BME280;17111;52.130;5.028;2023-01-31T03:16:26;102432.41;;;15.01;49.13
30302;BME280;17111;52.130;5.028;2023-01-31T03:19:20;102430.59;;;15.01;49.66
30302;BME280;17111;52.130;5.028;2023-01-31T03:22:10;102432.41;;;15.01;50.05
30302;BME280;17111;52.130;5.028;2023-01-31T03:24:43;102430.41;;;15.04;50.01
30302;BME280;17111;52.130;5.028;2023-01-31T03:27:13;102425.94;;;15.05;49.74
30302;BME280;17111;52.130;5.028;2023-01-31T03:29:41;102421.34;;;15.07;49.10
30302;BME280;17111;52.130;5.028;2023-01-31T03:32:30;102420.59;;;15.05;49.05
30302;BME280;17111;52.130;5.028;2023-01-31T03:34:58;102404.47;;;15.06;50.09
30302;BME280;17111;52.130;5.028;2023-01-31T03:37:36;102401.78;;;15.06;50.15
30302;BME280;17111;52.130;5.028;2023-01-31T03:42:56;102400.84;;;15.08;49.77
30302;BME280;17111;52.130;5.028;2023-01-31T03:45:36;102391.88;;;15.09;49.48
30302;BME280;17111;52.130;5.028;2023-01-31T03:48:06;102393.69;;;15.08;49.98
30302;BME280;17111;52.130;5.028;2023-01-31T03:50:43;102396.38;;;15.08;48.95
30302;BME280;17111;52.130;5.028;2023-01-31T03:55:50;102391.03;;;15.08;49.11
30302;BME280;17111;52.130;5.028;2023-01-31T03:58:21;102398.94;;;15.10;49.15
30302;BME280;17111;52.130;5.028;2023-01-31T04:00:49;102397.22;;;15.09;50.07
30302;BME280;17111;52.130;5.028;2023-01-31T04:05:46;102387.50;;;15.08;50.07
30302;BME280;17111;52.130;5.028;2023-01-31T04:08:15;102388.44;;;15.06;49.97
30302;BME280;17111;52.130;5.028;2023-01-31T04:10:42;102381.38;;;15.05;49.43
30302;BME280;17111;52.130;5.028;2023-01-31T04:13:09;102383.19;;;15.05;49.56
30302;BME280;17111;52.130;5.028;2023-01-31T04:15:35;102379.69;;;15.04;49.27
30302;BME280;17111;52.130;5.028;2023-01-31T04:18:02;102378.81;;;15.04;50.31
30302;BME280;17111;52.130;5.028;2023-01-31T04:20:28;102371.75;;;15.03;49.58
30302;BME280;17111;52.130;5.028;2023-01-31T04:22:55;102361.06;;;15.03;49.96
30302;BME280;17111;52.130;5.028;2023-01-31T04:25:21;102370.03;;;15.02;49.96
30302;BME280;17111;52.130;5.028;2023-01-31T04:27:48;102363.84;;;15.01;49.67
30302;BME280;17111;52.130;5.028;2023-01-31T04:30:17;102361.16;;;15.01;49.87
30302;BME280;17111;52.130;5.028;2023-01-31T04:32:43;102360.31;;;15.01;49.34
30302;BME280;17111;52.130;5.028;2023-01-31T04:35:10;102358.69;;;14.98;49.52
30302;BME280;17111;52.130;5.028;2023-01-31T04:37:36;102364.88;;;14.99;50.33
30302;BME280;17111;52.130;5.028;2023-01-31T04:40:03;102364.03;;;14.98;49.88
30302;BME280;17111;52.130;5.028;2023-01-31T04:42:31;102358.69;;;14.98;49.67
30302;BME280;17111;52.130;5.028;2023-01-31T04:44:57;102344.50;;;14.98;49.52
30302;BME280;17111;52.130;5.028;2023-01-31T04:47:25;102352.50;;;14.98;49.29
30302;BME280;17111;52.130;5.028;2023-01-31T04:49:51;102340.84;;;14.99;49.99
30302;BME280;17111;52.130;5.028;2023-01-31T04:52:18;102344.50;;;14.98;49.11
30302;BME280;17111;52.130;5.028;2023-01-31T04:54:44;102344.50;;;14.98;50.28
30302;BME280;17111;52.130;5.028;2023-01-31T04:57:11;102351.66;;;14.97;49.67
30302;BME280;17111;52.130;5.028;2023-01-31T04:59:37;102339.25;;;14.96;49.33
30302;BME280;17111;52.130;5.028;2023-01-31T05:02:04;102342.78;;;14.97;50.35
30302;BME280;17111;52.130;5.028;2023-01-31T05:04:31;102345.44;;;14.97;49.25
30302;BME280;17111;52.130;5.028;2023-01-31T05:06:58;102351.66;;;14.97;49.29
30302;BME280;17111;52.130;5.028;2023-01-31T05:09:24;102336.59;;;14.96;49.64
30302;BME280;17111;52.130;5.028;2023-01-31T05:11:51;102336.59;;;14.96;49.29
30302;BME280;17111;52.130;5.028;2023-01-31T05:14:18;102336.59;;;14.96;50.24
30302;BME280;17111;52.130;5.028;2023-01-31T05:16:46;102336.59;;;14.96;49.41
30302;BME280;17111;52.130;5.028;2023-01-31T05:19:16;102327.72;;;14.96;50.02
30302;BME280;17111;52.130;5.028;2023-01-31T05:21:42;102333.91;;;14.96;49.25
30302;BME280;17111;52.130;5.028;2023-01-31T05:24:27;102316.16;;;14.95;49.86
30302;BME280;17111;52.130;5.028;2023-01-31T05:26:55;102327.72;;;14.96;50.12
30302;BME280;17111;52.130;5.028;2023-01-31T05:29:25;102338.41;;;14.96;49.47
30302;BME280;17111;52.130;5.028;2023-01-31T05:31:54;102326.84;;;14.95;49.87
30302;BME280;17111;52.130;5.028;2023-01-31T05:34:22;102330.41;;;14.96;49.48
30302;BME280;17111;52.130;5.028;2023-01-31T05:36:51;102325.91;;;14.96;49.57
30302;BME280;17111;52.130;5.028;2023-01-31T05:39:18;102330.41;;;14.96;49.39
30302;BME280;17111;52.130;5.028;2023-01-31T05:41:44;102313.41;;;14.97;49.36
30302;BME280;17111;52.130;5.028;2023-01-31T05:44:11;102314.25;;;14.97;49.95
30302;BME280;17111;52.130;5.028;2023-01-31T05:46:38;102315.13;;;14.98;49.31
30302;BME280;17111;52.130;5.028;2023-01-31T05:49:04;102304.44;;;14.98;49.27
30302;BME280;17111;52.130;5.028;2023-01-31T05:51:31;102308.72;;;15.00;49.85
30302;BME280;17111;52.130;5.028;2023-01-31T05:53:57;102318.44;;;15.01;49.51
30302;BME280;17111;52.130;5.028;2023-01-31T05:56:25;102316.63;;;15.02;49.43
30302;BME280;17111;52.130;5.028;2023-01-31T05:58:51;102318.34;;;15.03;49.21
30302;BME280;17111;52.130;5.028;2023-01-31T06:01:20;102314.75;;;15.04;49.81
30302;BME280;17111;52.130;5.028;2023-01-31T06:03:48;102311.09;;;15.05;49.28
30302;BME280;17111;52.130;5.028;2023-01-31T06:06:15;102306.63;;;15.05;49.26
30302;BME280;17111;52.130;5.028;2023-01-31T06:08:42;102293.28;;;15.05;49.56
30302;BME280;17111;52.130;5.028;2023-01-31T06:11:10;102292.31;;;15.06;49.81
30302;BME280;17111;52.130;5.028;2023-01-31T06:13:37;102291.44;;;15.06;49.62
30302;BME280;17111;52.130;5.028;2023-01-31T06:16:04;102293.16;;;15.07;49.98
30302;BME280;17111;52.130;5.028;2023-01-31T06:18:31;102294.03;;;15.08;49.06
30302;BME280;17111;52.130;5.028;2023-01-31T06:20:58;102298.50;;;15.07;50.21
30302;BME280;17111;52.130;5.028;2023-01-31T06:23:25;102299.38;;;15.08;49.31
30302;BME280;17111;52.130;5.028;2023-01-31T06:25:52;102303.84;;;15.07;49.14
30302;BME280;17111;52.130;5.028;2023-01-31T06:28:19;102296.78;;;15.06;49.79
30302;BME280;17111;52.130;5.028;2023-01-31T06:30:46;102295.09;;;15.05;49.37
30302;BME280;17111;52.130;5.028;2023-01-31T06:33:13;102292.31;;;15.06;49.17
30302;BME280;17111;52.130;5.028;2023-01-31T06:35:40;102296.78;;;15.06;49.84
30302;BME280;17111;52.130;5.028;2023-01-31T06:38:07;102282.59;;;15.05;49.46
30302;BME280;17111;52.130;5.028;2023-01-31T06:40:34;102288.78;;;15.06;49.67
30302;BME280;17111;52.130;5.028;2023-01-31T06:43:01;102272.88;;;15.04;49.68
30302;BME280;17111;52.130;5.028;2023-01-31T06:45:28;102263.91;;;15.05;49.34
30302;BME280;17111;52.130;5.028;2023-01-31T06:47:55;102260.38;;;15.05;49.34
30302;BME280;17111;52.130;5.028;2023-01-31T06:50:21;102263.03;;;15.05;50.34
30302;BME280;17111;52.130;5.028;2023-01-31T06:52:48;102263.91;;;15.05;50.24
30302;BME280;17111;52.130;5.028;2023-01-31T06:55:15;102271.91;;;15.05;49.15
30302;BME280;17111;52.130;5.028;2023-01-31T06:57:46;102253.31;;;15.04;50.02
30302;BME280;17111;52.130;5.028;2023-01-31T07:00:13;102252.38;;;15.05;50.33
30302;BME280;17111;52.130;5.028;2023-01-31T07:02:39;102247.03;;;15.05;50.36
30302;BME280;17111;52.130;5.028;2023-01-31T07:05:06;102247.88;;;15.05;49.37
30302;BME280;17111;52.130;5.028;2023-01-31T07:07:33;102241.69;;;15.05;50.28
30302;BME280;17111;52.130;5.028;2023-01-31T07:09:59;102236.34;;;15.05;49.92
30302;BME280;17111;52.130;5.028;2023-01-31T07:12:27;102232.81;;;15.04;50.50
30302;BME280;17111;52.130;5.028;2023-01-31T07:14:53;102236.34;;;15.05;50.28
30302;BME280;17111;52.130;5.028;2023-01-31T07:17:20;102243.38;;;15.06;50.19
30302;BME280;17111;52.130;5.028;2023-01-31T07:19:46;102244.34;;;15.05;49.82
30302;BME280;17111;52.130;5.028;2023-01-31T07:22:13;102240.72;;;15.06;49.90
30302;BME280;17111;52.130;5.028;2023-01-31T07:24:39;102241.69;;;15.05;49.65
30302;BME280;17111;52.130;5.028;2023-01-31T07:27:06;102236.22;;;15.06;50.46
30302;BME280;17111;52.130;5.028;2023-01-31T07:29:33;102233.56;;;15.06;50.35
30302;BME280;17111;52.130;5.028;2023-01-31T07:32:02;102236.16;;;15.08;49.75
30302;BME280;17111;52.130;5.028;2023-01-31T07:34:29;102230.81;;;15.08;50.64
30302;BME280;17111;52.130;5.028;2023-01-31T07:36:56;102241.50;;;15.08;50.39
30302;BME280;17111;52.130;5.028;2023-01-31T07:39:23;102235.19;;;15.09;50.31
30302;BME280;17111;52.130;5.028;2023-01-31T07:41:49;102230.81;;;15.08;49.85
30302;BME280;17111;52.130;5.028;2023-01-31T07:44:16;102212.13;;;15.08;49.89
30302;BME280;17111;52.130;5.028;2023-01-31T07:46:42;102214.78;;;15.08;49.98
30302;BME280;17111;52.130;5.028;2023-01-31T07:49:09;102216.50;;;15.09;50.43
30302;BME280;17111;52.130;5.028;2023-01-31T07:51:36;102211.16;;;15.09;50.03
30302;BME280;17111;52.130;5.028;2023-01-31T07:54:06;102211.03;;;15.11;50.70
30302;BME280;17111;52.130;5.028;2023-01-31T07:56:32;102208.28;;;15.12;50.39
30302;BME280;17111;52.130;5.028;2023-01-31T07:58:59;102200.28;;;15.12;49.76
30302;BME280;17111;52.130;5.028;2023-01-31T08:01:26;102195.78;;;15.13;50.29
30302;BME280;17111;52.130;5.028;2023-01-31T08:04:16;102186.81;;;15.14;49.83
30302;BME280;17111;52.130;5.028;2023-01-31T08:06:48;102186.69;;;15.15;50.13
30302;BME280;17111;52.130;5.028;2023-01-31T08:09:16;102186.69;;;15.15;49.78
30302;BME280;17111;52.130;5.028;2023-01-31T08:11:42;102179.56;;;15.16;50.42
30302;BME280;17111;52.130;5.028;2023-01-31T08:14:09;102175.94;;;15.17;49.80
30302;BME280;17111;52.130;5.028;2023-01-31T08:16:36;102172.28;;;15.18;50.01
30302;BME280;17111;52.130;5.028;2023-01-31T08:19:03;102174.00;;;15.19;50.67
30302;BME280;17111;52.130;5.028;2023-01-31T08:21:30;102174.84;;;15.19;50.15
30302;BME280;17111;52.130;5.028;2023-01-31T08:23:57;102159.72;;;15.20;50.58
30302;BME280;17111;52.130;5.028;2023-01-31T08:26:23;102164.09;;;15.21;50.28
30302;BME280;17111;52.130;5.028;2023-01-31T08:28:50;102167.59;;;15.21;49.83
30302;BME280;17111;52.130;5.028;2023-01-31T08:31:23;102158.63;;;15.22;49.54
30302;BME280;17111;52.130;5.028;2023-01-31T08:33:50;102158.53;;;15.24;50.57
30302;BME280;17111;52.130;5.028;2023-01-31T08:36:27;102157.66;;;15.23;50.04
30302;BME280;17111;52.130;5.028;2023-01-31T08:38:55;102162.06;;;15.24;50.07
30302;BME280;17111;52.130;5.028;2023-01-31T08:41:23;102162.06;;;15.24;49.65
30302;BME280;17111;52.130;5.028;2023-01-31T08:43:50;102146.91;;;15.25;49.89
30302;BME280;17111;52.130;5.028;2023-01-31T08:46:27;102164.75;;;15.24;50.22
30302;BME280;17111;52.130;5.028;2023-01-31T08:48:56;102176.16;;;15.26;50.05
30302;BME280;17111;52.130;5.028;2023-01-31T08:51:23;102177.88;;;15.27;50.65
30302;BME280;17111;52.130;5.028;2023-01-31T08:53:50;102179.69;;;15.27;50.68
30302;BME280;17111;52.130;5.028;2023-01-31T08:56:17;102177.00;;;15.27;50.68
30302;BME280;17111;52.130;5.028;2023-01-31T08:58:47;102177.88;;;15.27;49.70
30302;BME280;17111;52.130;5.028;2023-01-31T09:01:15;102185.03;;;15.27;49.69
30302;BME280;17111;52.130;5.028;2023-01-31T09:03:43;102174.25;;;15.28;49.93
30302;BME280;17111;52.130;5.028;2023-01-31T09:06:13;102172.44;;;15.29;50.42
30302;BME280;17111;52.130;5.028;2023-01-31T09:08:40;102155.56;;;15.28;49.70
30302;BME280;17111;52.130;5.028;2023-01-31T09:11:07;102159.94;;;15.29;50.60
30302;BME280;17111;52.130;5.028;2023-01-31T09:13:34;102156.28;;;15.30;50.29
30302;BME280;17111;52.130;5.028;2023-01-31T09:16:06;102158.00;;;15.31;49.77
30302;BME280;17111;52.130;5.028;2023-01-31T09:18:37;102166.00;;;15.31;49.70
30302;BME280;17111;52.130;5.028;2023-01-31T09:21:09;102153.53;;;15.32;50.54
30302;BME280;17111;52.130;5.028;2023-01-31T09:23:36;102141.78;;;15.35;49.92
30302;BME280;17111;52.130;5.028;2023-01-31T09:26:07;102148.84;;;15.36;50.31
30302;BME280;17111;52.130;5.028;2023-01-31T09:28:34;102133.56;;;15.38;50.09
30302;BME280;17111;52.130;5.028;2023-01-31T09:31:09;102132.72;;;15.37;50.19
30302;BME280;17111;52.130;5.028;2023-01-31T09:33:36;102130.75;;;15.39;50.10
30302;BME280;17111;52.130;5.028;2023-01-31T09:36:08;102128.00;;;15.41;49.93
30302;BME280;17111;52.130;5.028;2023-01-31T09:38:34;102140.41;;;15.42;49.69
30302;BME280;17111;52.130;5.028;2023-01-31T09:41:04;102128.75;;;15.43;50.32
30302;BME280;17111;52.130;5.028;2023-01-31T09:43:40;102143.06;;;15.42;49.40
30302;BME280;17111;52.130;5.028;2023-01-31T09:46:14;102134.94;;;15.43;49.25
30302;BME280;17111;52.130;5.028;2023-01-31T09:48:45;102134.94;;;15.43;49.61
30302;BME280;17111;52.130;5.028;2023-01-31T09:51:15;102130.47;;;15.44;50.26
30302;BME280;17111;52.130;5.028;2023-01-31T09:53:42;102130.47;;;15.44;49.56
30302;BME280;17111;52.130;5.028;2023-01-31T09:59:17;102136.69;;;15.44;49.52
30302;BME280;17111;52.130;5.028;2023-01-31T10:01:47;102151.84;;;15.44;49.52
30302;BME280;17111;52.130;5.028;2023-01-31T10:04:20;102141.16;;;15.44;49.36
30302;BME280;17111;52.130;5.028;2023-01-31T10:07:19;102126.19;;;15.41;50.07
30302;BME280;17111;52.130;5.028;2023-01-31T10:09:54;102134.09;;;15.43;50.32
30302;BME280;17111;52.130;5.028;2023-01-31T10:12:42;102132.38;;;15.42;50.39
30302;BME280;17111;52.130;5.028;2023-01-31T10:15:17;102125.22;;;15.42;50.38
30302;BME280;17111;52.130;5.028;2023-01-31T10:17:50;102127.88;;;15.42;49.61
30302;BME280;17111;52.130;5.028;2023-01-31T10:20:43;102129.59;;;15.43;50.57
30302;BME280;17111;52.130;5.028;2023-01-31T10:25:48;102130.38;;;15.45;50.51
30302;BME280;17111;52.130;5.028;2023-01-31T10:31:11;102137.41;;;15.46;50.76
30302;BME280;17111;52.130;5.028;2023-01-31T10:33:55;102136.56;;;15.46;50.86
30302;BME280;17111;52.130;5.028;2023-01-31T10:39:25;102107.16;;;15.46;49.90
30302;BME280;17111;52.130;5.028;2023-01-31T10:47:13;102105.88;;;15.51;50.75
30302;BME280;17111;52.130;5.028;2023-01-31T10:49:47;102119.22;;;15.51;50.09
30302;BME280;17111;52.130;5.028;2023-01-31T10:55:35;102111.13;;;15.53;50.75
30302;BME280;17111;52.130;5.028;2023-01-31T10:58:16;102119.16;;;15.53;50.90
30302;BME280;17111;52.130;5.028;2023-01-31T11:00:44;102123.41;;;15.55;50.52
30302;BME280;17111;52.130;5.028;2023-01-31T11:03:13;102121.63;;;15.56;50.91
30302;BME280;17111;52.130;5.028;2023-01-31T11:05:51;102122.56;;;15.55;50.34
30302;BME280;17111;52.130;5.028;2023-01-31T11:08:30;102129.63;;;15.56;50.19
30302;BME280;17111;52.130;5.028;2023-01-31T11:11:04;102126.00;;;15.57;50.68
30302;BME280;17111;52.130;5.028;2023-01-31T11:13:30;102131.22;;;15.59;49.99
30302;BME280;17111;52.130;5.028;2023-01-31T11:15:57;102117.84;;;15.59;50.45
30302;BME280;17111;52.130;5.028;2023-01-31T11:18:28;102120.53;;;15.59;50.61
30302;BME280;17111;52.130;5.028;2023-01-31T11:20:55;102124.06;;;15.59;50.01
30302;BME280;17111;52.130;5.028;2023-01-31T11:23:26;102128.53;;;15.59;51.06
30302;BME280;17111;52.130;5.028;2023-01-31T11:25:54;102119.56;;;15.60;50.96
30302;BME280;17111;52.130;5.028;2023-01-31T11:28:34;102117.78;;;15.60;50.36
30302;BME280;17111;52.130;5.028;2023-01-31T11:31:03;102115.94;;;15.61;50.98
30302;BME280;17111;52.130;5.028;2023-01-31T11:34:00;102111.53;;;15.60;49.96
30302;BME280;17111;52.130;5.028;2023-01-31T11:36:31;102106.19;;;15.60;50.19
30302;BME280;17111;52.130;5.028;2023-01-31T11:38:58;102105.25;;;15.61;51.03
30302;BME280;17111;52.130;5.028;2023-01-31T11:41:34;102097.31;;;15.59;51.00
30302;BME280;17111;52.130;5.028;2023-01-31T11:44:21;102098.31;;;15.58;50.09
30302;BME280;17111;52.130;5.028;2023-01-31T11:49:23;102107.94;;;15.61;51.07
30302;BME280;17111;52.130;5.028;2023-01-31T11:51:52;102105.25;;;15.61;50.53
30302;BME280;17111;52.130;5.028;2023-01-31T11:54:26;102099.91;;;15.61;50.45
30302;BME280;17111;52.130;5.028;2023-01-31T11:56:55;102091.03;;;15.60;50.28
30302;BME280;17111;52.130;5.028;2023-01-31T11:59:26;102083.97;;;15.59;51.32
30302;BME280;17111;52.130;5.028;2023-01-31T12:01:57;102082.06;;;15.61;50.80
30302;BME280;17111;52.130;5.028;2023-01-31T12:04:42;102072.44;;;15.59;51.13
30302;BME280;17111;52.130;5.028;2023-01-31T12:07:26;102070.59;;;15.59;50.68
30302;BME280;17111;52.130;5.028;2023-01-31T12:09:56;102066.03;;;15.61;51.67
30302;BME280;17111;52.130;5.028;2023-01-31T12:12:33;102066.13;;;15.60;50.69
30302;BME280;17111;52.130;5.028;2023-01-31T12:15:12;102065.19;;;15.61;50.68
30302;BME280;17111;52.130;5.028;2023-01-31T12:17:44;102063.34;;;15.61;50.82
30302;BME280;17111;52.130;5.028;2023-01-31T12:20:39;102065.19;;;15.61;51.01
30302;BME280;17111;52.130;5.028;2023-01-31T12:26:09;102050.72;;;15.63;51.06
30302;BME280;17111;52.130;5.028;2023-01-31T12:31:35;102050.66;;;15.65;50.47
30302;BME280;17111;52.130;5.028;2023-01-31T12:34:17;102058.47;;;15.68;50.96
30302;BME280;17111;52.130;5.028;2023-01-31T12:44:47;102054.72;;;15.70;50.55
30302;BME280;17111;52.130;5.028;2023-01-31T12:55:57;102045.63;;;15.73;51.59
30302;BME280;17111;52.130;5.028;2023-01-31T12:58:57;102034.94;;;15.73;50.83
30302;BME280;17111;52.130;5.028;2023-01-31T13:01:48;102045.41;;;15.76;50.97
30302;BME280;17111;52.130;5.028;2023-01-31T13:04:58;102032.13;;;15.74;51.42
30302;BME280;17111;52.130;5.028;2023-01-31T13:07:31;102025.81;;;15.75;51.27
30302;BME280;17111;52.130;5.028;2023-01-31T13:10:02;102028.41;;;15.77;50.45
30302;BME280;17111;52.130;5.028;2023-01-31T13:12:32;102033.63;;;15.78;51.56
30302;BME280;17111;52.130;5.028;2023-01-31T13:15:26;102028.28;;;15.78;51.31
30302;BME280;17111;52.130;5.028;2023-01-31T13:17:59;102031.72;;;15.81;50.32
30302;BME280;17111;52.130;5.028;2023-01-31T13:20:33;102021.88;;;15.81;51.21
30302;BME280;17111;52.130;5.028;2023-01-31T13:23:08;102029.91;;;15.81;50.54
30302;BME280;17111;52.130;5.028;2023-01-31T13:25:42;102034.16;;;15.84;50.78
30302;BME280;17111;52.130;5.028;2023-01-31T13:28:14;102024.34;;;15.84;50.38
30302;BME280;17111;52.130;5.028;2023-01-31T13:30:55;102019.00;;;15.84;50.19
30302;BME280;17111;52.130;5.028;2023-01-31T13:36:00;102024.22;;;15.86;50.99
30302;BME280;17111;52.130;5.028;2023-01-31T13:38:37;102019.59;;;15.88;50.29
30302;BME280;17111;52.130;5.028;2023-01-31T13:41:07;102022.19;;;15.89;50.79
30302;BME280;17111;52.130;5.028;2023-01-31T13:43:36;102028.25;;;15.91;50.25
30302;BME280;17111;52.130;5.028;2023-01-31T13:46:06;102032.88;;;15.89;51.35
30302;BME280;17111;52.130;5.028;2023-01-31T13:48:54;102027.41;;;15.91;50.46
30302;BME280;17111;52.130;5.028;2023-01-31T13:51:32;102032.53;;;15.94;51.02
30302;BME280;17111;52.130;5.028;2023-01-31T13:54:10;102039.72;;;15.93;51.21
30302;BME280;17111;52.130;5.028;2023-01-31T13:56:40;102048.38;;;15.97;50.69
30302;BME280;17111;52.130;5.028;2023-01-31T13:59:09;102047.06;;;16.02;50.37
30302;BME280;17111;52.130;5.028;2023-01-31T14:01:44;102063.72;;;16.06;50.05
30302;BME280;17111;52.130;5.028;2023-01-31T14:06:57;102072.91;;;16.15;50.09
30302;BME280;17111;52.130;5.028;2023-01-31T14:12:37;102080.38;;;16.22;50.16
30302;BME280;17111;52.130;5.028;2023-01-31T14:15:47;102085.50;;;16.25;50.33
30302;BME280;17111;52.130;5.028;2023-01-31T14:18:34;102073.72;;;16.28;50.29
30302;BME280;17111;52.130;5.028;2023-01-31T14:23:57;102091.03;;;16.35;50.06
30302;BME280;17111;52.130;5.028;2023-01-31T14:29:24;102090.81;;;16.38;50.43
30302;BME280;17111;52.130;5.028;2023-01-31T14:31:53;102099.47;;;16.42;50.49
30302;BME280;17111;52.130;5.028;2023-01-31T14:37:21;102108.34;;;16.42;49.90
30302;BME280;17111;52.130;5.028;2023-01-31T14:40:12;102103.84;;;16.43;49.98
30302;BME280;17111;52.130;5.028;2023-01-31T14:45:53;102095.94;;;16.41;49.39